createdAt,value
2022-10-12T00:02:05.221Z,0.40
2022-10-12T00:04:31.650Z,1.20
2022-10-12T00:06:58.031Z,1.37
2022-10-12T00:09:24.395Z,0.60
2022-10-12T00:11:50.759Z,0.40
2022-10-12T00:14:17.134Z,2.20
2022-10-12T00:16:43.474Z,0.47
2022-10-12T00:19:13.185Z,0.60
2022-10-12T00:21:40.352Z,0.70
2022-10-12T00:24:07.140Z,0.40
2022-10-12T00:26:33.877Z,0.53
2022-10-12T00:29:02.100Z,0.97
2022-10-12T00:31:30.275Z,1.03
2022-10-12T00:34:00.190Z,1.50
2022-10-12T00:36:29.998Z,1.60
2022-10-12T00:38:56.668Z,0.90
2022-10-12T00:41:26.343Z,1.13
2022-10-12T00:43:57.820Z,0.80
2022-10-12T00:46:41.361Z,0.50
2022-10-12T00:49:20.173Z,0.77
2022-10-12T00:51:51.925Z,0.70
2022-10-12T00:54:23.631Z,1.37
2022-10-12T00:56:52.961Z,0.80
2022-10-12T00:59:28.371Z,0.37
2022-10-12T01:01:55.960Z,0.83
2022-10-12T01:04:23.711Z,1.73
2022-10-12T01:06:51.091Z,0.40
2022-10-12T01:09:17.929Z,1.67
2022-10-12T01:11:44.244Z,2.10
2022-10-12T01:14:11.536Z,0.40
2022-10-12T01:16:37.861Z,0.60
2022-10-12T01:19:38.554Z,0.67
2022-10-12T01:22:11.935Z,0.83
2022-10-12T01:25:01.163Z,0.37
2022-10-12T01:27:40.395Z,0.80
2022-10-12T01:30:29.010Z,0.60
2022-10-12T01:33:17.658Z,0.73
2022-10-12T01:35:54.642Z,1.80
2022-10-12T01:38:29.976Z,1.30
2022-10-12T01:41:01.740Z,0.70
2022-10-12T01:43:40.502Z,1.60
2022-10-12T01:46:08.123Z,0.80
2022-10-12T01:48:34.586Z,0.70
2022-10-12T01:51:02.548Z,0.67
2022-10-12T01:53:41.659Z,0.40
2022-10-12T01:56:38.425Z,0.60
2022-10-12T01:59:22.522Z,0.50
2022-10-12T02:02:04.096Z,0.43
2022-10-12T02:04:49.252Z,0.60
2022-10-12T02:07:32.613Z,0.70
2022-10-12T02:10:02.326Z,1.33
2022-10-12T02:12:31.461Z,0.30
2022-10-12T02:15:02.624Z,0.37
2022-10-12T02:17:30.269Z,2.77
2022-10-12T02:19:59.339Z,0.77
2022-10-12T02:22:33.997Z,1.07
2022-10-12T02:25:04.090Z,0.77
2022-10-12T02:27:33.513Z,0.20
2022-10-12T02:30:00.120Z,0.70
2022-10-12T02:32:41.679Z,0.60
2022-10-12T02:35:10.300Z,0.60
2022-10-12T02:37:43.982Z,0.87
2022-10-12T02:40:21.554Z,0.60
2022-10-12T02:43:09.911Z,0.30
2022-10-12T02:45:40.816Z,1.70
2022-10-12T02:48:09.424Z,0.50
2022-10-12T02:50:36.464Z,0.40
2022-10-12T02:53:04.391Z,0.70
2022-10-12T02:55:31.415Z,0.77
2022-10-12T02:57:57.839Z,0.57
2022-10-12T03:00:24.336Z,1.20
2022-10-12T03:02:50.705Z,0.30
2022-10-12T03:05:17.070Z,0.87
2022-10-12T03:07:43.463Z,0.40
2022-10-12T03:10:09.843Z,1.10
2022-10-12T03:12:36.229Z,1.17
2022-10-12T03:15:02.660Z,0.27
2022-10-12T03:17:29.014Z,0.40
2022-10-12T03:19:55.365Z,0.87
2022-10-12T03:22:21.773Z,0.47
2022-10-12T03:24:48.487Z,1.10
2022-10-12T03:27:14.897Z,0.67
2022-10-12T03:29:41.280Z,0.20
2022-10-12T03:32:07.656Z,0.40
2022-10-12T03:34:34.011Z,0.50
2022-10-12T03:37:00.353Z,0.70
2022-10-12T03:39:26.704Z,0.80
2022-10-12T03:41:53.100Z,0.40
2022-10-12T03:44:19.461Z,0.37
2022-10-12T03:46:45.787Z,0.30
2022-10-12T03:49:12.150Z,0.83
2022-10-12T03:51:38.540Z,0.67
2022-10-12T03:54:05.108Z,0.73
2022-10-12T03:56:31.449Z,0.67
2022-10-12T03:58:57.848Z,0.50
2022-10-12T04:01:24.568Z,0.30
2022-10-12T04:03:51.044Z,1.27
2022-10-12T04:06:17.441Z,0.30
2022-10-12T04:08:48.341Z,0.50
2022-10-12T04:11:16.931Z,0.20
2022-10-12T04:13:43.963Z,0.30
2022-10-12T04:16:10.417Z,0.30
2022-10-12T04:18:36.879Z,0.83
2022-10-12T04:21:15.746Z,0.40
2022-10-12T04:23:43.033Z,0.30
2022-10-12T04:26:09.909Z,0.80
2022-10-12T04:28:36.308Z,0.40
2022-10-12T04:31:02.744Z,0.50
2022-10-12T04:33:29.121Z,0.20
2022-10-12T04:35:55.489Z,1.43
2022-10-12T04:38:21.880Z,1.77
2022-10-12T04:40:49.028Z,0.60
2022-10-12T04:43:16.554Z,0.40
2022-10-12T04:45:42.952Z,0.37
2022-10-12T04:48:09.305Z,0.30
2022-10-12T04:50:36.012Z,1.63
2022-10-12T04:53:02.376Z,0.50
2022-10-12T04:55:28.892Z,0.30
2022-10-12T04:57:55.245Z,0.30
2022-10-12T05:00:21.641Z,1.07
2022-10-12T05:02:48.025Z,0.47
2022-10-12T05:05:14.475Z,0.30
2022-10-12T05:07:41.082Z,0.30
2022-10-12T05:10:08.125Z,0.30
2022-10-12T05:12:34.448Z,0.73
2022-10-12T05:15:00.829Z,0.30
2022-10-12T05:17:27.192Z,0.30
2022-10-12T05:19:53.555Z,1.13
2022-10-12T05:22:19.965Z,0.63
2022-10-12T05:24:50.043Z,0.40
2022-10-12T05:27:19.276Z,0.67
2022-10-12T05:29:45.695Z,0.40
2022-10-12T05:32:12.031Z,0.30
2022-10-12T05:34:38.414Z,0.80
2022-10-12T05:37:04.949Z,0.23
2022-10-12T05:39:31.551Z,0.40
2022-10-12T05:41:58.640Z,0.30
2022-10-12T05:44:25.024Z,0.70
2022-10-12T05:46:51.395Z,0.20
2022-10-12T05:49:17.799Z,0.30
2022-10-12T05:51:44.376Z,1.80
2022-10-12T05:54:10.727Z,1.03
2022-10-12T05:56:37.087Z,0.40
2022-10-12T05:59:04.060Z,0.20
2022-10-12T06:01:30.943Z,1.30
2022-10-12T06:03:57.332Z,0.50
2022-10-12T06:06:23.838Z,0.30
2022-10-12T06:08:50.311Z,1.73
2022-10-12T06:11:16.817Z,0.90
2022-10-12T06:13:43.166Z,0.37
2022-10-12T06:16:09.522Z,0.87
2022-10-12T06:18:35.837Z,0.73
2022-10-12T06:21:31.996Z,1.70
2022-10-12T06:23:48.622Z,0.43
2022-10-12T06:26:16.287Z,0.90
2022-10-12T06:28:43.529Z,0.33
2022-10-12T06:31:11.116Z,0.40
2022-10-12T06:33:37.475Z,0.70
2022-10-12T06:36:03.960Z,0.80
2022-10-12T06:38:30.285Z,0.20
2022-10-12T06:40:56.632Z,0.90
2022-10-12T06:43:24.153Z,0.97
2022-10-12T06:45:50.607Z,2.10
2022-10-12T06:48:18.750Z,0.50
2022-10-12T06:50:46.511Z,1.13
2022-10-12T06:53:12.833Z,0.60
2022-10-12T06:55:40.381Z,0.47
2022-10-12T06:58:06.721Z,0.50
2022-10-12T07:00:33.107Z,0.50
2022-10-12T07:02:59.462Z,0.50
2022-10-12T07:05:25.881Z,0.60
2022-10-12T07:07:52.205Z,0.60
2022-10-12T07:10:18.571Z,0.33
2022-10-12T07:12:44.988Z,0.40
2022-10-12T07:15:11.409Z,0.50
2022-10-12T07:17:38.036Z,0.47
2022-10-12T07:20:05.670Z,0.93
2022-10-12T07:22:32.114Z,1.40
2022-10-12T07:24:58.603Z,0.60
2022-10-12T07:27:24.972Z,1.27
2022-10-12T07:29:51.530Z,0.47
2022-10-12T07:32:17.956Z,1.23
2022-10-12T07:34:44.735Z,1.00
2022-10-12T07:37:11.505Z,1.80
2022-10-12T07:39:38.071Z,0.97
2022-10-12T07:42:04.492Z,1.03
2022-10-12T07:44:31.588Z,0.50
2022-10-12T07:46:58.344Z,1.90
2022-10-12T07:49:24.665Z,1.33
2022-10-12T07:51:51.021Z,1.47
2022-10-12T07:54:21.051Z,1.00
2022-10-12T07:56:49.124Z,0.60
2022-10-12T07:59:16.554Z,1.20
2022-10-12T08:01:43.508Z,0.87
2022-10-12T08:04:10.344Z,0.50
2022-10-12T08:06:36.990Z,1.30
2022-10-12T08:09:04.022Z,0.70
2022-10-12T08:11:30.532Z,0.97
2022-10-12T08:13:56.998Z,1.23
2022-10-12T08:16:23.944Z,1.10
2022-10-12T08:18:50.342Z,0.80
2022-10-12T08:21:17.833Z,1.40
2022-10-12T08:23:45.076Z,0.80
2022-10-12T08:26:12.141Z,0.90
2022-10-12T08:28:38.613Z,1.50
2022-10-12T08:31:10.137Z,1.00
2022-10-12T08:33:36.890Z,0.50
2022-10-12T08:36:05.472Z,0.67
2022-10-12T08:38:32.019Z,0.60
2022-10-12T08:41:19.013Z,1.17
2022-10-12T08:44:04.279Z,0.97
2022-10-12T08:46:30.838Z,0.60
2022-10-12T08:49:16.343Z,1.10
2022-10-12T08:52:02.694Z,1.10
2022-10-12T08:54:38.641Z,0.87
2022-10-12T08:57:05.114Z,2.20
2022-10-12T08:59:33.370Z,0.73
2022-10-12T09:02:25.717Z,0.30
2022-10-12T09:05:01.296Z,1.40
2022-10-12T09:07:36.066Z,1.57
2022-10-12T09:10:17.336Z,1.00
2022-10-12T09:13:05.448Z,0.93
2022-10-12T09:15:36.810Z,1.17
2022-10-12T09:18:11.582Z,0.80
2022-10-12T09:20:47.011Z,0.70
2022-10-12T09:23:16.381Z,0.80
2022-10-12T09:25:43.199Z,1.33
2022-10-12T09:28:19.772Z,0.70
2022-10-12T09:31:02.417Z,1.87
2022-10-12T09:33:37.995Z,1.10
2022-10-12T09:36:04.720Z,1.47
2022-10-12T09:38:31.159Z,0.97
2022-10-12T09:40:57.488Z,1.30
2022-10-12T09:43:24.189Z,0.93
2022-10-12T09:45:51.584Z,2.83
2022-10-12T09:48:20.910Z,1.83
2022-10-12T09:51:03.298Z,1.93
2022-10-12T09:53:34.066Z,0.93
2022-10-12T09:56:30.204Z,1.10
2022-10-12T09:59:02.098Z,0.70
2022-10-12T10:01:30.543Z,1.80
2022-10-12T10:04:13.477Z,1.03
2022-10-12T10:06:45.434Z,2.07
2022-10-12T10:09:26.401Z,0.70
2022-10-12T10:11:53.170Z,1.93
2022-10-12T10:14:19.657Z,1.57
2022-10-12T10:16:51.543Z,1.53
2022-10-12T10:19:21.300Z,0.80
2022-10-12T10:21:47.873Z,0.87
2022-10-12T10:24:27.911Z,0.83
2022-10-12T10:26:56.554Z,1.93
2022-10-12T10:29:32.275Z,1.93
2022-10-12T10:32:24.428Z,1.73
2022-10-12T10:35:05.518Z,1.63
2022-10-12T10:37:33.304Z,0.83
2022-10-12T10:40:00.806Z,1.73
2022-10-12T10:42:31.882Z,1.57
2022-10-12T10:45:08.603Z,0.90
2022-10-12T10:47:43.251Z,1.50
2022-10-12T10:50:25.426Z,0.70
2022-10-12T10:52:58.579Z,1.13
2022-10-12T10:55:47.170Z,2.70
2022-10-12T10:58:23.492Z,1.07
2022-10-12T11:00:53.286Z,1.77
2022-10-12T11:03:29.878Z,1.73
2022-10-12T11:06:20.524Z,1.50
2022-10-12T11:08:50.784Z,1.57
2022-10-12T11:11:23.522Z,1.53
2022-10-12T11:14:03.966Z,1.90
2022-10-12T11:16:39.797Z,2.07
2022-10-12T11:19:42.254Z,1.67
2022-10-12T11:22:16.823Z,1.40
2022-10-12T11:24:52.287Z,1.97
2022-10-12T11:27:38.254Z,0.70
2022-10-12T11:30:14.045Z,1.63
2022-10-12T11:32:48.458Z,1.50
2022-10-12T11:35:21.134Z,1.43
2022-10-12T11:38:00.487Z,1.00
2022-10-12T11:40:55.440Z,0.97
2022-10-12T11:43:24.009Z,1.50
2022-10-12T11:45:57.077Z,1.53
2022-10-12T11:48:28.743Z,1.00
2022-10-12T11:51:02.855Z,1.43
2022-10-12T11:53:53.686Z,2.07
2022-10-12T11:56:48.692Z,1.93
2022-10-12T11:59:38.915Z,1.40
2022-10-12T12:02:14.779Z,1.97
2022-10-12T12:04:44.450Z,1.10
2022-10-12T12:07:16.970Z,2.20
2022-10-12T12:09:50.083Z,2.03
2022-10-12T12:12:23.071Z,1.20
2022-10-12T12:14:55.316Z,2.33
2022-10-12T12:17:21.911Z,2.10
2022-10-12T12:19:50.607Z,2.73
2022-10-12T12:22:24.637Z,2.10
2022-10-12T12:24:54.538Z,1.53
2022-10-12T12:27:33.884Z,1.40
2022-10-12T12:30:02.762Z,2.30
2022-10-12T12:32:45.975Z,3.00
2022-10-12T12:35:29.073Z,3.80
2022-10-12T12:38:08.098Z,2.60
2022-10-12T12:40:35.287Z,2.00
2022-10-12T12:43:56.715Z,2.30
2022-10-12T12:46:26.044Z,2.67
2022-10-12T12:48:52.342Z,2.53
2022-10-12T12:51:26.675Z,3.90
2022-10-12T12:54:00.431Z,1.27
2022-10-12T12:56:49.671Z,1.63
2022-10-12T12:59:27.867Z,3.27
2022-10-12T13:02:31.751Z,2.00
2022-10-12T13:05:36.589Z,2.63
2022-10-12T13:08:26.057Z,1.83
2022-10-12T13:10:55.512Z,3.23
2022-10-12T13:13:39.180Z,1.90
2022-10-12T13:17:09.579Z,2.90
2022-10-12T13:19:15.780Z,3.03
2022-10-12T13:21:48.935Z,1.87
2022-10-12T13:24:22.170Z,2.23
2022-10-12T13:26:51.556Z,2.43
2022-10-12T13:29:41.522Z,3.10
2022-10-12T13:32:20.579Z,4.00
2022-10-12T13:34:49.863Z,3.27
2022-10-12T13:37:16.872Z,3.50
2022-10-12T13:39:46.895Z,2.27
2022-10-12T13:42:17.912Z,2.30
2022-10-12T13:44:47.268Z,2.27
2022-10-12T13:47:43.022Z,1.90
2022-10-12T13:50:18.754Z,3.40
2022-10-12T13:52:53.184Z,3.00
2022-10-12T13:55:26.955Z,2.17
2022-10-12T13:57:53.374Z,1.80
2022-10-12T14:00:25.284Z,2.23
2022-10-12T14:02:56.836Z,2.63
2022-10-12T14:05:26.078Z,1.60
2022-10-12T14:07:54.721Z,2.23
2022-10-12T14:10:28.740Z,2.30
2022-10-12T14:12:56.671Z,3.33
2022-10-12T14:15:27.719Z,2.00
2022-10-12T14:17:54.847Z,1.87
2022-10-12T14:20:37.344Z,3.07
2022-10-12T14:23:12.872Z,2.80
2022-10-12T14:25:51.225Z,1.30
2022-10-12T14:28:32.682Z,2.23
2022-10-12T14:30:59.190Z,3.50
2022-10-12T14:33:26.619Z,1.70
2022-10-12T14:36:15.504Z,1.33
2022-10-12T14:38:45.503Z,3.20
2022-10-12T14:41:38.630Z,2.93
2022-10-12T14:44:21.759Z,1.60
2022-10-12T14:46:51.088Z,3.17
2022-10-12T14:49:39.827Z,2.07
2022-10-12T14:52:07.514Z,1.70
2022-10-12T14:54:34.266Z,1.87
2022-10-12T14:57:12.247Z,1.73
2022-10-12T14:59:38.852Z,2.43
2022-10-12T15:02:15.010Z,0.93
2022-10-12T15:04:41.422Z,3.17
2022-10-12T15:07:19.463Z,1.20
2022-10-12T15:09:46.858Z,2.10
2022-10-12T15:12:16.427Z,2.17
2022-10-12T15:14:43.315Z,2.27
2022-10-12T15:17:14.778Z,1.83
2022-10-12T15:19:43.330Z,1.40
2022-10-12T15:22:29.912Z,1.80
2022-10-12T15:24:56.293Z,1.37
2022-10-12T15:27:22.684Z,2.00
2022-10-12T15:29:49.119Z,1.53
2022-10-12T15:32:17.744Z,1.67
2022-10-12T15:34:44.947Z,1.63
2022-10-12T15:37:11.434Z,1.30
2022-10-12T15:39:37.865Z,1.50
2022-10-12T15:42:04.428Z,1.80
2022-10-12T15:44:30.772Z,1.17
2022-10-12T15:46:57.145Z,1.93
2022-10-12T15:49:26.317Z,1.90
2022-10-12T15:51:54.840Z,2.40
2022-10-12T15:54:21.247Z,2.00
2022-10-12T15:56:47.600Z,1.47
2022-10-12T15:59:14.048Z,1.43
2022-10-12T16:01:42.490Z,1.47
2022-10-12T16:04:13.435Z,1.63
2022-10-12T16:06:40.035Z,1.70
2022-10-12T16:09:06.513Z,1.70
2022-10-12T16:11:32.848Z,1.50
2022-10-12T16:13:59.483Z,1.60
2022-10-12T16:16:25.985Z,1.93
2022-10-12T16:18:53.833Z,1.57
2022-10-12T16:21:20.374Z,1.10
2022-10-12T16:23:46.764Z,1.63
2022-10-12T16:26:15.157Z,1.63
2022-10-12T16:28:42.463Z,2.30
2022-10-12T16:31:15.758Z,1.63
2022-10-12T16:33:42.328Z,1.67
2022-10-12T16:36:10.656Z,1.23
2022-10-12T16:38:37.113Z,2.20
2022-10-12T16:41:08.639Z,2.17
2022-10-12T16:43:35.027Z,1.77
2022-10-12T16:46:01.396Z,2.40
2022-10-12T16:48:27.721Z,1.70
2022-10-12T16:50:54.121Z,1.33
2022-10-12T16:53:20.464Z,2.43
2022-10-12T16:55:46.855Z,1.93
2022-10-12T16:58:13.198Z,2.70
2022-10-12T17:00:40.926Z,2.90
2022-10-12T17:03:08.648Z,2.37
2022-10-12T17:05:35.165Z,2.23
2022-10-12T17:08:01.522Z,3.10
2022-10-12T17:10:28.046Z,2.20
2022-10-12T17:12:54.412Z,3.70
2022-10-12T17:15:20.797Z,3.00
2022-10-12T17:17:47.139Z,2.07
2022-10-12T17:20:13.528Z,1.90
2022-10-12T17:22:39.925Z,2.73
2022-10-12T17:25:06.623Z,2.87
2022-10-12T17:27:32.975Z,2.10
2022-10-12T17:29:59.509Z,2.80
2022-10-12T17:32:26.475Z,1.97
2022-10-12T17:34:53.031Z,2.00
2022-10-12T17:37:21.124Z,3.37
2022-10-12T17:39:48.330Z,2.00
2022-10-12T17:42:15.337Z,2.83
2022-10-12T17:44:41.918Z,2.67
2022-10-12T17:47:08.561Z,3.27
2022-10-12T17:49:34.968Z,2.07
2022-10-12T17:52:01.458Z,2.93
2022-10-12T17:54:28.100Z,2.40
2022-10-12T17:56:55.600Z,1.43
2022-10-12T17:59:22.577Z,2.50
2022-10-12T18:01:49.431Z,1.93
2022-10-12T18:04:16.183Z,3.10
2022-10-12T18:06:42.681Z,2.37
2022-10-12T18:09:09.256Z,2.60
2022-10-12T18:11:37.480Z,3.00
2022-10-12T18:14:03.936Z,3.80
2022-10-12T18:16:32.999Z,3.37
2022-10-12T18:19:01.748Z,3.07
2022-10-12T18:21:30.919Z,2.87
2022-10-12T18:23:57.291Z,2.43
2022-10-12T18:26:24.886Z,3.97
2022-10-12T18:28:53.219Z,2.87
2022-10-12T18:31:25.136Z,2.50
2022-10-12T18:33:52.823Z,3.17
2022-10-12T18:36:20.371Z,4.23
2022-10-12T18:38:47.459Z,4.53
2022-10-12T18:41:16.979Z,5.03
2022-10-12T18:43:43.633Z,4.63
2022-10-12T18:46:12.300Z,5.30
2022-10-12T18:48:39.227Z,4.07
2022-10-12T18:51:18.505Z,3.30
2022-10-12T18:53:45.593Z,3.80
2022-10-12T18:56:12.632Z,4.30
2022-10-12T18:58:40.520Z,3.27
2022-10-12T19:01:15.683Z,3.10
2022-10-12T19:03:42.424Z,5.20
2022-10-12T19:06:14.220Z,3.23
2022-10-12T19:08:43.380Z,4.10
2022-10-12T19:11:11.020Z,3.77
2022-10-12T19:13:37.982Z,2.47
2022-10-12T19:16:15.115Z,2.77
2022-10-12T19:18:42.420Z,3.63
2022-10-12T19:21:14.818Z,3.67
2022-10-12T19:23:42.144Z,3.70
2022-10-12T19:26:18.834Z,3.20
2022-10-12T19:28:46.002Z,3.20
2022-10-12T19:31:21.850Z,3.13
2022-10-12T19:33:48.459Z,2.93
2022-10-12T19:36:17.896Z,3.60
2022-10-12T19:38:46.118Z,2.27
2022-10-12T19:41:13.170Z,3.60
2022-10-12T19:43:39.923Z,3.13
2022-10-12T19:46:09.609Z,3.03
2022-10-12T19:48:37.490Z,2.70
2022-10-12T19:51:10.537Z,2.93
2022-10-12T19:53:37.744Z,2.47
2022-10-12T19:56:07.065Z,2.50
2022-10-12T19:58:33.587Z,2.93
2022-10-12T20:01:08.472Z,4.27
2022-10-12T20:03:35.624Z,2.63
2022-10-12T20:06:06.029Z,2.80
2022-10-12T20:08:33.024Z,2.63
2022-10-12T20:10:59.614Z,4.10
2022-10-12T20:13:26.059Z,3.20
2022-10-12T20:15:53.289Z,2.93
2022-10-12T20:18:19.788Z,3.63
2022-10-12T20:20:46.455Z,2.17
2022-10-12T20:23:13.269Z,2.17
2022-10-12T20:25:41.453Z,3.83
2022-10-12T20:28:08.010Z,3.60
2022-10-12T20:30:34.706Z,2.50
2022-10-12T20:33:01.146Z,2.83
2022-10-12T20:35:28.228Z,2.17
2022-10-12T20:37:55.028Z,3.50
2022-10-12T20:40:21.444Z,3.47
2022-10-12T20:42:47.826Z,3.80
2022-10-12T20:45:14.560Z,3.57
2022-10-12T20:47:44.345Z,4.73
2022-10-12T20:50:12.674Z,2.30
2022-10-12T20:52:39.641Z,4.03
2022-10-12T20:55:06.463Z,1.10
2022-10-12T20:57:32.901Z,4.30
2022-10-12T20:59:59.275Z,2.67
2022-10-12T21:02:25.876Z,2.10
2022-10-12T21:04:52.407Z,3.83
2022-10-12T21:07:19.014Z,3.50
2022-10-12T21:09:45.535Z,2.63
2022-10-12T21:12:11.913Z,4.03
2022-10-12T21:14:38.280Z,3.80
2022-10-12T21:17:04.762Z,3.30
2022-10-12T21:19:31.093Z,3.90
2022-10-12T21:21:57.543Z,3.37
2022-10-12T21:24:24.070Z,3.30
2022-10-12T21:26:51.774Z,2.80
2022-10-12T21:29:18.327Z,4.10
2022-10-12T21:31:44.941Z,2.97
2022-10-12T21:34:11.746Z,3.33
2022-10-12T21:36:38.856Z,3.37
2022-10-12T21:39:11.904Z,3.37
2022-10-12T21:41:38.698Z,3.80
2022-10-12T21:44:05.318Z,2.13
2022-10-12T21:46:33.778Z,2.30
2022-10-12T21:49:01.794Z,4.17
2022-10-12T21:51:30.402Z,2.03
2022-10-12T21:53:57.218Z,3.33
2022-10-12T21:56:31.759Z,3.77
2022-10-12T21:58:59.926Z,1.30
2022-10-12T22:01:34.556Z,3.07
2022-10-12T22:04:03.130Z,2.80
2022-10-12T22:06:30.038Z,4.40
2022-10-12T22:08:58.753Z,2.83
2022-10-12T22:11:27.205Z,1.70
2022-10-12T22:13:59.131Z,3.20
2022-10-12T22:16:26.389Z,2.33
2022-10-12T22:18:52.736Z,2.50
2022-10-12T22:21:19.341Z,2.00
2022-10-12T22:23:46.139Z,3.10
2022-10-12T22:26:18.843Z,2.20
2022-10-12T22:28:45.815Z,1.93
2022-10-12T22:31:14.241Z,2.77
2022-10-12T22:33:41.032Z,2.63
2022-10-12T22:36:08.399Z,2.03
2022-10-12T22:38:35.368Z,1.83
2022-10-12T22:41:06.234Z,1.97
2022-10-12T22:43:34.209Z,2.27
2022-10-12T22:46:00.921Z,2.07
2022-10-12T22:48:27.995Z,2.80
2022-10-12T22:50:55.131Z,2.03
2022-10-12T22:53:23.325Z,1.30
2022-10-12T22:55:53.798Z,1.90
2022-10-12T22:58:20.124Z,4.23
2022-10-12T23:00:46.515Z,2.13
2022-10-12T23:03:12.902Z,2.97
2022-10-12T23:05:39.240Z,2.43
2022-10-12T23:08:05.649Z,2.40
2022-10-12T23:10:32.180Z,2.40
2022-10-12T23:12:58.568Z,3.07
2022-10-12T23:15:24.967Z,1.73
2022-10-12T23:17:51.285Z,2.40
2022-10-12T23:20:17.650Z,3.43
2022-10-12T23:22:43.990Z,2.50
2022-10-12T23:25:10.394Z,2.07
2022-10-12T23:27:36.781Z,1.33
2022-10-12T23:30:03.366Z,1.70
2022-10-12T23:32:30.405Z,1.20
2022-10-12T23:34:56.743Z,2.20
2022-10-12T23:37:23.095Z,2.00
2022-10-12T23:39:49.537Z,1.73
2022-10-12T23:42:16.190Z,2.43
2022-10-12T23:44:42.790Z,1.30
2022-10-12T23:47:09.145Z,2.10
2022-10-12T23:49:35.575Z,3.17
2022-10-12T23:52:02.037Z,1.97
2022-10-12T23:54:28.381Z,2.10
2022-10-12T23:56:54.815Z,3.20
2022-10-12T23:59:21.191Z,1.47
